• Join FlightAware (Why Join?)
  • Login
  • US Flag 
02:16PM EDT


 

Airport Tracker/Info


-or-


 

Live Flight TrackerFlight Track Log ✈ FLG4156 ✈ 05-May-2012 ✈ KMOT - KMSP

Flight Track Log - Related Links

Times and Time Zones

All times are in EDT time to prevent confusion due to time zone crossing. See the FLG4156 flight status page for this flight to view local times or setup timezone preferences in your user account.

Time Position Orientation Groundspeed Altitude Reporting Facility
EDT Latitude Longitude Course Direction KTS MPH feet Rate Location/Type
12:03PM 48.1183 -100.8589 115° Southeast 298 343 10,700  Level Minneapolis Center
12:07PM 47.9503 -100.3319 117° Southeast 360 414 17,000 1,500 Climbing Minneapolis Center
12:08PM 47.9022 -100.1922 116° Southeast 374 430 18,200 1,020 Climbing Minneapolis Center
12:09PM 47.8544 -100.0436 115° Southeast 386 444 19,100 960 Climbing Minneapolis Center
12:10PM 47.8050 -99.8886 155° Southeast 398 458 20,200 1,080 Climbing Minneapolis Center
12:11PM 47.7044 -99.8178 158° South 377 434 21,300 1,320 Climbing Minneapolis Center
12:12PM 47.6117 -99.7633 162° South 372 428 22,900 840 Climbing Minneapolis Center
12:13PM 47.4936 -99.7061 157° South 378 435 23,000 420 Climbing Minneapolis Center
12:14PM 47.4008 -99.6492 158° South 394 453 23,800 1,560 Climbing Minneapolis Center
12:15PM 47.3039 -99.5917 156° South 389 448 26,200 1,680 Climbing Minneapolis Center
12:16PM 47.2111 -99.5322 151° Southeast 375 432 27,200 900 Climbing Minneapolis Center
12:17PM 47.1231 -99.4608 112° Southeast 365 420 28,000 720 Climbing Minneapolis Center
12:18PM 47.0808 -99.3067 100° East 360 414 28,700 480 Climbing Minneapolis Center
12:19PM 47.0586 -99.1303 99° East 378 435 29,000 120 Climbing Minneapolis Center
12:20PM 47.0381 -98.9481 94° East 418 481 29,000  Level Minneapolis Center
12:21PM 47.0286 -98.7550 46° Northeast 443 510 29,000  Level Minneapolis Center
12:22PM 47.1269 -98.6058 48° Northeast 439 505 29,000  Level Minneapolis Center
12:23PM 47.2236 -98.4500 81° East 463 533 29,000  Level Minneapolis Center
12:24PM 47.2447 -98.2500 100° East 474 545 29,000  Level Minneapolis Center
12:25PM 47.2194 -98.0489 111° Southeast 474 545 29,000  Level Minneapolis Center
12:26PM 47.1706 -97.8614 115° Southeast 474 545 29,000  Level Minneapolis Center
12:27PM 47.1053 -97.6606 115° Southeast 482 555 29,000  Level Minneapolis Center
12:28PM 47.0489 -97.4856 114° Southeast 482 555 29,000  Level Minneapolis Center
12:29PM 46.9967 -97.3142 115° Southeast 476 548 29,000  Level Minneapolis Center
12:30PM 46.9400 -97.1367 116° Southeast 476 548 29,000  Level Minneapolis Center
12:31PM 46.8828 -96.9625 116° Southeast 476 548 29,000  Level Minneapolis Center
12:32PM 46.8256 -96.7889 115° Southeast 476 548 29,000  Level Minneapolis Center
12:33PM 46.7681 -96.6125 118° Southeast 481 554 29,000  Level Minneapolis Center
12:34PM 46.7061 -96.4422 113° Southeast 481 554 29,000  Level Minneapolis Center
12:35PM 46.6522 -96.2578 116° Southeast 481 554 29,000  Level Minneapolis Center
12:36PM 46.5939 -96.0825 115° Southeast 476 548 29,000  Level Minneapolis Center
12:37PM 46.5356 -95.9047 117° Southeast 476 548 29,000  Level Minneapolis Center
12:38PM 46.4744 -95.7300 117° Southeast 481 554 29,000  Level Minneapolis Center
12:39PM 46.4192 -95.5711 117° Southeast 481 554 29,000  Level Minneapolis Center
12:40PM 46.3578 -95.4003 116° Southeast 481 554 29,000  Level Minneapolis Center
12:41PM 46.2981 -95.2239 117° Southeast 481 554 29,000  Level Minneapolis Center
12:42PM 46.2283 -95.0233 118° Southeast 496 571 29,000  Level Minneapolis Center
12:43PM 46.1658 -94.8539 116° Southeast 488 562 29,000  Level Minneapolis Center
12:44PM 46.1094 -94.6906 118° Southeast 488 562 29,000 -720 Level Minneapolis Center
12:45PM 46.0447 -94.5156 117° Southeast 488 562 27,600 -2,040 Descending Minneapolis Center
12:46PM 45.9878 -94.3533 117° Southeast 475 547 25,000 -2,580 Descending Minneapolis Center
12:47PM 45.9325 -94.2000 117° Southeast 453 521 22,500 -2,460 Descending Minneapolis Center
12:48PM 45.8814 -94.0561 106° East 416 479 20,100 -2,400 Descending Minneapolis Center
12:49PM 45.8508 -93.9069 98° East 387 445 17,700 -1,560 Descending Minneapolis Center
12:50PM 45.8347 -93.7519 97° East 374 430 17,000 -960 Descending Minneapolis Center
12:51PM 45.8250 -93.6439 113° Southeast 373 429 16,100 -1,740 Descending FAA TRACON SMA TRACON (SMA)
12:52PM 45.7975 -93.5528 160° South 372 428 14,700 -2,100 Descending FAA TRACON SMA TRACON (SMA)
12:52PM 45.7433 -93.5253 191° South 345 397 13,400 -2,100 Descending FAA TRACON SMA TRACON (SMA)
12:53PM 45.6814 -93.5422 192° South 327 376 11,900 -1,800 Descending FAA TRACON SMA TRACON (SMA)
12:54PM 45.6286 -93.5581 191° South 317 365 11,000 -780 Descending FAA TRACON SMA TRACON (SMA)
12:54PM 45.5678 -93.5753 175° South 320 368 10,900 -120 Descending FAA TRACON SMA TRACON (SMA)
12:55PM 45.5075 -93.5672 159° South 322 371 10,900 -240 Level FAA TRACON SMA TRACON (SMA)
12:56PM 45.4489 -93.5350 167° South 327 376 10,600 -840 Descending FAA TRACON SMA TRACON (SMA)
12:56PM 45.3989 -93.5192 195° South 299 344 9,800 -1,500 Descending FAA TRACON SMA TRACON (SMA)
12:57PM 45.3481 -93.5386 197° South 277 319 8,600 -1,800 Descending FAA TRACON SMA TRACON (SMA)
12:58PM 45.3022 -93.5586 198° South 278 320 7,500 -1,320 Descending FAA TRACON SMA TRACON (SMA)
12:58PM 45.2514 -93.5825 199° South 276 318 6,900 -1,680 Descending FAA TRACON SMA TRACON (SMA)
12:59PM 45.2033 -93.6058 198° South 264 304 5,300 -2,220 Descending FAA TRACON SMA TRACON (SMA)
01:00PM 45.1553 -93.6281 189° South 266 306 4,000 -1,080 Descending FAA TRACON SMA TRACON (SMA)
01:00PM 45.1139 -93.6372 155° Southeast 249 287 3,900 -120 Descending FAA TRACON SMA TRACON (SMA)
01:01PM 45.0781 -93.6133 144° Southeast 205 236 3,900  Level FAA TRACON SMA TRACON (SMA)
01:02PM 45.0469 -93.5817 119° Southeast 204 235 3,900  Level FAA TRACON SMA TRACON (SMA)
01:02PM 45.0303 -93.5397 122° Southeast 199 229 3,900  Level FAA TRACON SMA TRACON (SMA)
01:03PM 45.0108 -93.4950 122° Southeast 192 221 3,900  Level FAA TRACON SMA TRACON (SMA)
01:04PM 44.9931 -93.4547 120° Southeast 173 199 3,900  Level FAA TRACON SMA TRACON (SMA)
01:04PM 44.9781 -93.4186 121° Southeast 173 199 3,900 -420 Level FAA TRACON SMA TRACON (SMA)
01:05PM 44.9614 -93.3794 122° Southeast 166 191 3,400 -780 Descending FAA TRACON SMA TRACON (SMA)
01:06PM 44.9461 -93.3447 121° Southeast 146 168 2,900 -780 Descending FAA TRACON SMA TRACON (SMA)
01:06PM 44.9339 -93.3158 121° Southeast 138 159 2,400 -780 Descending FAA TRACON SMA TRACON (SMA)
01:07PM 44.9200 -93.2833 121° Southeast 141 162 1,900 -780 Descending FAA TRACON SMA TRACON (SMA)
01:08PM 44.9078 -93.2550 121° Southeast 138 159 1,400 -720 Descending FAA TRACON SMA TRACON (SMA)
01:08PM 44.8967 -93.2289 121° Southeast 143 165 1,000 -600 Descending FAA TRACON SMA TRACON (SMA)